Time;durP1;ratioP1;P1;durP2;ratioP2;P2;SDS_P1;SDS_P2;PMS_P1;PMS_P2;Temp;Humidity;BMP_temperature;BMP_pressure;BME280_temperature;BME280_humidity;BME280_pressure;Samples;Min_cycle;Max_cycle;Signal;HPM_P1;HPM_P2
2021/09/21 00:02:12;;;;;;;1.40;0.50;;;7.70;1.40;;;9.08;100.00;95993.64;647552;216;32251;-71
2021/09/21 00:04:54;;;;;;;0.83;0.83;;;7.80;1.40;;;9.19;100.00;95985.91;646401;212;31533;-72
2021/09/21 00:07:35;;;;;;;1.20;0.70;;;7.90;1.40;;;9.25;100.00;95984.29;646923;216;42154;-72
2021/09/21 00:10:17;;;;;;;1.10;0.80;;;7.90;1.40;;;9.37;100.00;95979.45;645793;216;31503;-71
2021/09/21 00:13:02;;;;;;;0.80;0.80;;;8.10;1.40;;;9.55;100.00;95982.73;645578;212;31496;-73
2021/09/21 00:15:45;;;;;;;0.70;0.50;;;8.20;1.40;;;9.55;100.00;95983.06;646892;212;31644;-72
2021/09/21 00:18:27;;;;;;;1.00;0.90;;;8.20;1.40;;;9.49;100.00;95989.55;647097;212;31627;-71
2021/09/21 00:21:09;;;;;;;0.50;0.50;;;8.10;1.40;;;9.33;100.00;95989.02;646726;212;32105;-72
2021/09/21 00:23:54;;;;;;;1.40;0.40;;;8.10;1.40;;;9.29;100.00;95988.37;646506;216;31584;-72
2021/09/21 00:26:35;;;;;;;0.70;0.40;;;8.10;1.40;;;9.46;100.00;95984.84;646374;212;31561;-71
2021/09/21 00:29:17;;;;;;;0.50;0.50;;;8.30;1.40;;;9.59;100.00;95984.00;646379;216;31531;-72
2021/09/21 00:35:51;;;;;;;1.20;1.20;;;8.60;1.40;;;9.75;100.00;95986.09;645339;212;31581;-72
2021/09/21 00:38:34;;;;;;;0.67;0.67;;;8.50;1.40;;;9.68;100.00;95984.64;646090;216;32133;-71
2021/09/21 00:41:16;;;;;;;0.90;0.90;;;8.40;1.40;;;9.71;100.00;95983.16;646221;214;31507;-71
2021/09/21 00:43:58;;;;;;;1.00;0.60;;;8.50;1.40;;;9.76;100.00;95980.39;646460;212;31737;-70
2021/09/21 00:46:40;;;;;;;0.50;0.43;;;8.60;1.40;;;9.92;100.00;95976.41;646047;216;31501;-72
2021/09/21 00:49:21;;;;;;;0.73;0.57;;;8.70;1.40;;;10.01;100.00;95980.80;645489;212;31535;-72
2021/09/21 00:52:03;;;;;;;1.40;0.60;;;8.80;1.40;;;10.03;100.00;95978.13;646539;212;31560;-69
2021/09/21 00:54:45;;;;;;;0.60;0.50;;;8.90;1.40;;;10.09;100.00;95977.01;646748;216;31950;-70
2021/09/21 00:57:27;;;;;;;1.17;0.87;;;9.00;1.40;;;10.10;100.00;95981.98;646095;216;31579;-70
2021/09/21 01:00:09;;;;;;;0.70;0.67;;;9.00;1.40;;;10.04;100.00;95974.73;646648;212;31621;-71
2021/09/21 01:02:51;;;;;;;1.10;1.00;;;9.00;1.40;;;10.08;100.00;95972.84;646044;216;32251;-73
2021/09/21 01:05:58;;;;;;;0.98;0.95;;;9.00;1.40;;;10.17;100.00;95977.02;647153;216;31648;-71
2021/09/21 01:08:40;;;;;;;1.07;0.97;;;9.10;1.40;;;10.43;100.00;95978.91;645993;212;31544;-72
2021/09/21 01:11:23;;;;;;;1.37;0.50;;;9.10;1.40;;;10.70;100.00;95990.23;647665;216;31588;-71
2021/09/21 01:14:05;;;;;;;0.90;0.70;;;9.20;1.40;;;10.58;100.00;95992.05;646673;212;31528;-71
2021/09/21 01:16:47;;;;;;;1.00;0.77;;;9.20;1.40;;;10.73;100.00;95990.03;646839;216;31535;-71
2021/09/21 01:19:29;;;;;;;2.20;0.70;;;9.20;1.40;;;10.69;100.00;95983.20;646133;212;31549;-71
2021/09/21 01:22:10;;;;;;;1.13;1.03;;;9.30;1.40;;;10.74;100.00;95983.13;647014;216;31546;-72
2021/09/21 01:24:52;;;;;;;2.50;1.50;;;9.30;1.40;;;11.02;100.00;95978.78;646930;212;31566;-72
2021/09/21 01:27:34;;;;;;;0.60;0.50;;;9.40;1.40;;;11.19;100.00;95980.77;646232;216;31975;-71
2021/09/21 01:30:15;;;;;;;1.33;1.23;;;9.50;1.40;;;10.98;100.00;95980.41;645652;212;31830;-70
2021/09/21 01:32:57;;;;;;;1.60;1.37;;;9.40;1.40;;;10.92;100.00;95984.16;645647;216;31559;-71
2021/09/21 01:35:52;;;;;;;1.00;1.00;;;9.40;1.40;;;10.80;100.00;95985.95;647554;212;31699;-71
2021/09/21 01:38:33;;;;;;;1.80;1.10;;;9.40;1.40;;;11.00;100.00;95993.50;646974;212;31650;-71
2021/09/21 01:41:15;;;;;;;0.70;0.60;;;9.50;1.40;;;11.02;100.00;96000.26;640240;216;31871;-71
2021/09/21 01:44:00;;;;;;;0.90;0.90;;;9.60;1.40;;;11.05;100.00;96000.55;645364;216;31653;-71
2021/09/21 01:46:41;;;;;;;1.90;1.30;;;9.50;1.40;;;10.80;100.00;95994.95;646121;216;32038;-71
2021/09/21 01:49:24;;;;;;;1.20;1.00;;;9.50;1.40;;;10.80;100.00;95995.18;648104;216;32531;-70
2021/09/21 01:52:16;;;;;;;1.00;0.80;;;9.40;1.40;;;11.03;100.00;96002.47;646352;212;31548;-71
2021/09/21 02:00:33;;;;;;;1.70;1.27;;;9.70;1.40;;;11.24;100.00;96018.09;646039;216;31523;-72
2021/09/21 02:03:15;;;;;;;0.80;0.60;;;9.60;1.40;;;10.98;100.00;96014.48;618638;222;42692;-72
2021/09/21 02:05:56;;;;;;;2.13;1.33;;;9.60;1.40;;;10.94;100.00;96014.39;646115;216;42149;-70
2021/09/21 02:08:38;;;;;;;1.80;1.10;;;9.50;1.40;;;11.04;100.00;96004.95;645623;216;42160;-70
2021/09/21 02:11:20;;;;;;;1.00;0.80;;;9.60;1.40;;;11.30;100.00;96014.36;646206;216;42103;-72
2021/09/21 02:14:01;;;;;;;1.20;1.10;;;9.60;1.40;;;11.45;100.00;96014.97;646375;212;32073;-71
2021/09/21 02:16:43;;;;;;;0.70;0.70;;;9.70;1.40;;;11.27;100.00;96018.53;631289;222;31907;-71
2021/09/21 02:19:25;;;;;;;0.60;0.50;;;9.70;1.40;;;11.09;100.00;96018.50;646671;216;42413;-72
2021/09/21 02:22:06;;;;;;;0.90;0.70;;;9.60;1.40;;;11.02;100.00;96015.55;647376;216;31541;-72
2021/09/21 02:24:48;;;;;;;1.83;0.70;;;9.60;1.40;;;11.31;100.00;96021.17;647216;212;42514;-71
2021/09/21 02:27:30;;;;;;;0.70;0.70;;;9.60;1.40;;;11.20;100.00;96023.30;647015;212;42136;-72
2021/09/21 02:30:13;;;;;;;0.60;0.60;;;9.60;1.40;;;11.14;100.00;96023.70;644424;213;31722;-72
2021/09/21 02:32:54;;;;;;;0.97;0.97;;;9.60;1.40;;;11.34;100.00;96021.98;646680;216;31537;-72
2021/09/21 02:35:51;;;;;;;1.23;1.12;;;9.70;1.40;;;11.53;100.00;96027.67;619087;226;32203;-71
2021/09/21 02:38:33;;;;;;;1.07;0.97;;;9.80;1.40;;;11.22;100.00;96018.61;647057;216;31636;-71
2021/09/21 02:41:15;;;;;;;0.62;0.62;;;9.70;1.40;;;11.12;100.00;96022.75;640121;212;32245;-72
2021/09/21 02:43:57;;;;;;;1.23;0.70;;;9.60;1.40;;;11.26;100.00;96020.77;647195;216;42241;-71
2021/09/21 02:46:39;;;;;;;1.80;1.37;;;9.70;1.40;;;11.60;100.00;96022.08;645345;212;31738;-72
2021/09/21 02:49:23;;;;;;;1.50;1.00;;;9.70;1.40;;;11.43;100.00;96027.59;647092;216;31814;-72
2021/09/21 02:52:05;;;;;;;0.80;0.80;;;9.70;1.40;;;11.17;100.00;96027.70;646495;213;31505;-71
2021/09/21 02:54:47;;;;;;;0.70;0.30;;;9.70;1.40;;;11.18;100.00;96030.77;645715;216;42309;-71
2021/09/21 02:57:28;;;;;;;0.70;0.70;;;9.70;1.40;;;11.43;100.00;96035.31;645960;212;31554;-70
2021/09/21 03:00:15;;;;;;;1.20;0.60;;;9.80;1.40;;;11.26;100.00;96033.75;645650;216;31539;-71
2021/09/21 03:02:58;;;;;;;0.80;0.80;;;9.70;1.40;;;11.18;100.00;96034.41;646332;212;32010;-70
2021/09/21 03:05:42;;;;;;;1.30;1.08;;;9.70;1.40;;;11.30;100.00;96033.30;645436;216;31538;-70
2021/09/21 03:08:21;;;;;;;0.40;0.30;;;9.70;1.40;;;11.41;100.00;96035.34;646596;216;32053;-71
2021/09/21 03:17:06;;;;;;;0.80;0.73;;;9.80;1.40;;;11.53;100.00;96047.50;646891;213;42358;-70
2021/09/21 03:19:16;;;;;;;1.30;0.80;;;9.90;1.40;;;11.62;100.00;96047.03;646547;216;39039;-71
2021/09/21 03:21:58;;;;;;;1.00;0.85;;;10.00;1.40;;;11.65;100.00;96056.50;646920;216;31599;-71
2021/09/21 03:24:40;;;;;;;2.00;1.10;;;10.00;1.40;;;11.47;100.00;96058.54;620097;222;31935;-72
2021/09/21 03:27:21;;;;;;;1.20;0.70;;;9.90;1.40;;;11.38;100.00;96057.15;618662;222;31965;-71
2021/09/21 03:32:37;;;;;;;1.27;1.17;;;9.80;1.40;;;11.37;100.00;96055.38;629471;220;38787;-72
2021/09/21 03:35:50;;;;;;;1.25;1.15;;;9.80;1.40;;;11.49;100.00;96060.69;647056;216;31539;-71
2021/09/21 03:38:32;;;;;;;1.50;0.80;;;9.80;1.40;;;11.14;100.00;96063.42;647411;216;42151;-71
2021/09/21 03:41:14;;;;;;;1.20;0.80;;;9.70;1.40;;;11.20;100.00;96061.84;640288;212;31699;-73
2021/09/21 03:43:55;;;;;;;1.77;1.67;;;9.70;1.40;;;11.23;100.00;96056.58;646771;216;31565;-72
2021/09/21 03:46:37;;;;;;;0.80;0.80;;;9.70;1.40;;;11.19;100.00;96056.33;647629;216;31741;-70
2021/09/21 03:49:19;;;;;;;1.43;0.90;;;9.70;1.40;;;11.26;100.00;96057.09;644880;216;42201;-71
2021/09/21 03:52:00;;;;;;;1.60;1.50;;;9.70;1.40;;;11.26;100.00;96061.54;645569;216;31565;-70
2021/09/21 03:54:42;;;;;;;1.30;0.93;;;9.70;1.40;;;11.15;100.00;96062.98;646312;216;31550;-71
2021/09/21 03:57:24;;;;;;;1.30;1.00;;;9.70;1.40;;;11.17;100.00;96056.08;645844;216;31550;-71
2021/09/21 04:00:07;;;;;;;1.50;1.40;;;9.80;1.40;;;11.17;100.00;96057.00;646143;216;31494;-72
2021/09/21 04:02:49;;;;;;;0.60;0.50;;;9.80;1.40;;;11.11;100.00;96062.92;646092;216;31552;-70
2021/09/21 04:05:30;;;;;;;1.00;0.90;;;9.70;1.40;;;11.26;100.00;96065.77;645572;212;31544;-72
2021/09/21 04:08:12;;;;;;;0.70;0.70;;;9.80;1.40;;;11.26;100.00;96064.97;645858;216;42107;-71
2021/09/21 04:10:54;;;;;;;0.95;0.80;;;9.80;1.40;;;11.27;100.00;96064.24;645388;212;34481;-71
2021/09/21 04:13:54;;;;;;;1.90;0.80;;;9.80;1.40;;;11.52;100.00;96069.05;646729;212;31551;-71
2021/09/21 04:16:36;;;;;;;1.57;1.47;;;9.90;1.40;;;11.47;100.00;96070.27;647003;212;31504;-71
2021/09/21 04:19:18;;;;;;;1.40;1.30;;;9.90;1.40;;;11.16;100.00;96064.19;645036;216;31526;-72
2021/09/21 04:22:00;;;;;;;1.80;1.50;;;9.80;1.40;;;11.04;100.00;96057.27;646190;216;31517;-71
2021/09/21 04:24:41;;;;;;;1.27;1.17;;;9.80;1.40;;;10.90;100.00;96055.42;646532;212;31785;-72
2021/09/21 04:27:23;;;;;;;0.90;0.70;;;9.70;1.40;;;10.94;100.00;96062.58;645953;212;31669;-72
2021/09/21 04:32:42;;;;;;;1.20;1.10;;;9.70;1.40;;;10.89;100.00;96066.98;646343;216;32174;-72
2021/09/21 04:35:52;;;;;;;1.30;1.10;;;9.70;1.40;;;11.06;100.00;96081.12;645213;212;31497;-72
2021/09/21 04:38:33;;;;;;;2.03;1.57;;;9.70;1.40;;;11.04;100.00;96084.23;647532;216;31552;-71
2021/09/21 04:41:15;;;;;;;1.57;1.47;;;9.70;1.40;;;11.02;100.00;96086.86;640405;212;42315;-71
2021/09/21 04:44:00;;;;;;;0.90;0.90;;;9.70;1.40;;;10.92;100.00;96090.22;647143;212;42084;-73
2021/09/21 04:46:41;;;;;;;1.50;1.40;;;9.60;1.40;;;10.81;100.00;96094.32;647188;216;42177;-71
2021/09/21 04:49:23;;;;;;;1.70;1.10;;;9.50;1.40;;;10.94;100.00;96100.67;646665;212;42137;-72
2021/09/21 04:52:05;;;;;;;1.70;1.10;;;9.60;1.40;;;11.20;100.00;96105.64;645118;212;31518;-71
2021/09/21 04:54:46;;;;;;;1.30;1.20;;;9.60;1.40;;;11.41;100.00;96108.48;646849;216;31581;-71
2021/09/21 04:57:28;;;;;;;0.90;0.70;;;9.80;1.40;;;11.18;100.00;96104.59;618666;226;42979;-71
2021/09/21 05:00:17;;;;;;;1.10;0.83;;;9.70;1.40;;;11.30;100.00;96106.87;646743;216;31522;-73
2021/09/21 05:03:04;;;;;;;1.17;1.07;;;9.70;1.40;;;11.32;100.00;96108.36;619117;226;32914;-71
2021/09/21 05:05:46;;;;;;;1.35;1.25;;;9.80;1.40;;;11.12;100.00;96108.17;619403;222;43047;-71
2021/09/21 05:08:27;;;;;;;2.40;1.40;;;9.70;1.40;;;11.14;100.00;96119.00;647775;216;32114;-71
2021/09/21 05:11:10;;;;;;;1.20;0.80;;;9.70;1.40;;;11.26;100.00;96123.38;647949;212;31526;-71
2021/09/21 05:13:51;;;;;;;0.63;0.47;;;9.70;1.40;;;11.36;100.00;96127.23;645353;212;31523;-71
2021/09/21 05:19:08;;;;;;;1.10;1.00;;;9.80;1.40;;;11.32;100.00;96127.80;646414;212;32659;-71
2021/09/21 05:21:49;;;;;;;1.57;1.40;;;9.80;1.40;;;11.44;100.00;96128.86;645406;212;31509;-72
2021/09/21 05:24:30;;;;;;;1.10;0.80;;;9.80;1.40;;;11.50;100.00;96131.11;646991;212;31503;-72
2021/09/21 05:27:12;;;;;;;1.53;1.43;;;9.90;1.40;;;11.52;100.00;96137.48;647432;212;31548;-71
2021/09/21 05:29:54;;;;;;;3.00;1.10;;;10.00;1.40;;;11.49;100.00;96145.68;645911;216;31530;-71
2021/09/21 05:32:35;;;;;;;1.33;1.10;;;9.90;1.40;;;11.67;100.00;96151.75;646842;216;31531;-70
2021/09/21 05:35:51;;;;;;;1.08;1.00;;;10.00;1.40;;;11.53;100.00;96155.16;646402;216;31920;-70
2021/09/21 05:38:33;;;;;;;1.20;1.10;;;10.00;1.40;;;11.82;100.00;96159.83;632425;221;31713;-71
2021/09/21 05:41:14;;;;;;;1.60;1.00;;;10.00;1.40;;;11.80;100.00;96162.03;642136;212;31703;-71
2021/09/21 05:43:56;;;;;;;2.20;0.87;;;10.00;1.40;;;11.66;100.00;96166.53;645975;216;31513;-71
2021/09/21 05:46:38;;;;;;;1.37;0.87;;;10.00;1.40;;;11.71;100.00;96167.83;645953;216;31639;-71
2021/09/21 05:49:19;;;;;;;2.00;1.40;;;10.10;1.40;;;11.70;100.00;96173.22;647947;212;39360;-71
2021/09/21 05:52:01;;;;;;;0.88;0.70;;;10.00;1.40;;;11.84;100.00;96174.36;618036;226;32689;-71
2021/09/21 05:54:43;;;;;;;1.20;0.90;;;10.10;1.40;;;11.80;100.00;96173.93;647052;216;31729;-70
2021/09/21 05:57:27;;;;;;;0.80;0.70;;;10.10;1.40;;;12.08;100.00;96178.36;647473;216;31571;-72
2021/09/21 06:00:12;;;;;;;1.00;0.90;;;10.30;1.40;;;12.00;100.00;96186.70;646172;216;31598;-72
2021/09/21 06:02:53;;;;;;;0.80;0.77;;;10.30;1.40;;;12.20;100.00;96195.78;645610;212;31617;-71
2021/09/21 06:05:35;;;;;;;0.90;0.80;;;10.30;1.40;;;11.75;100.00;96198.75;647522;216;31542;-71
2021/09/21 06:08:17;;;;;;;2.10;1.90;;;10.20;1.40;;;11.77;100.00;96201.99;645141;216;31553;-72
2021/09/21 06:10:59;;;;;;;1.03;0.93;;;10.20;1.40;;;11.82;100.00;96202.65;617944;222;32046;-71
2021/09/21 06:13:42;;;;;;;1.50;1.40;;;10.20;1.40;;;11.78;100.00;96205.78;645359;212;31491;-71
2021/09/21 06:16:22;;;;;;;1.37;1.27;;;10.20;1.40;;;11.76;100.00;96202.77;646348;216;32177;-71
2021/09/21 06:19:06;;;;;;;1.08;0.80;;;10.20;1.40;;;12.17;100.00;96219.73;656780;207;31424;-71
2021/09/21 06:21:54;;;;;;;1.50;1.40;;;10.40;1.40;;;12.28;100.00;96225.31;645474;216;31855;-72
2021/09/21 06:24:38;;;;;;;1.03;1.03;;;10.50;1.40;;;12.21;100.00;96227.51;646134;216;31502;-71
2021/09/21 06:27:20;;;;;;;0.80;0.80;;;10.50;1.40;;;12.31;100.00;96230.42;619911;226;31902;-71
2021/09/21 06:30:05;;;;;;;1.00;0.90;;;10.60;1.40;;;12.55;100.00;96233.91;645991;212;31435;-70
2021/09/21 06:35:56;;;;;;;1.40;1.30;;;10.70;1.40;;;12.82;100.00;96250.13;635498;220;43735;-71
2021/09/21 06:38:38;;;;;;;1.40;1.13;;;10.80;1.40;;;12.41;100.00;96256.09;645677;216;32055;-72
2021/09/21 06:42:14;;;;;;;1.20;1.10;;;10.70;1.40;;;12.68;100.00;96258.16;636335;212;32381;-71
2021/09/21 06:44:56;;;;;;;1.98;1.23;;;10.80;1.40;;;12.78;100.00;96249.70;647455;212;33248;-71
2021/09/21 06:47:38;;;;;;;2.60;1.63;;;10.90;1.40;;;12.91;100.00;96249.57;644978;212;31951;-70
2021/09/21 06:50:19;;;;;;;1.50;1.40;;;11.00;1.40;;;12.82;100.00;96249.75;645594;212;31672;-71
2021/09/21 06:53:01;;;;;;;1.80;1.65;;;11.00;1.40;;;13.10;100.00;96253.22;646374;212;33294;-71
2021/09/21 06:55:46;;;;;;;1.50;1.00;;;11.00;1.40;;;12.91;100.00;96256.16;643902;212;31641;-72
2021/09/21 06:58:28;;;;;;;1.80;1.70;;;11.00;1.40;;;13.07;100.00;96253.33;646255;212;32117;-71
2021/09/21 07:01:09;;;;;;;1.92;1.40;;;11.10;1.40;;;13.34;100.00;96254.06;646985;216;31570;-72
2021/09/21 07:03:54;;;;;;;1.40;1.30;;;11.30;1.40;;;13.45;100.00;96254.20;645053;216;31606;-71
2021/09/21 07:06:36;;;;;;;2.35;2.15;;;11.30;1.40;;;13.67;100.00;96255.86;646620;212;32567;-71
2021/09/21 07:09:17;;;;;;;1.40;1.30;;;11.40;1.40;;;13.08;100.00;96259.09;619035;226;39071;-70
2021/09/21 07:12:02;;;;;;;1.60;1.40;;;11.30;1.40;;;13.02;100.00;96261.04;646965;216;31590;-71
2021/09/21 07:14:44;;;;;;;4.00;1.85;;;11.30;1.40;;;13.30;100.00;96256.11;646035;216;39921;-71
2021/09/21 07:17:25;;;;;;;1.67;1.58;;;11.40;1.40;;;13.51;100.00;96255.12;648128;216;32169;-72
2021/09/21 07:20:08;;;;;;;1.50;1.40;;;11.50;1.40;;;13.71;100.00;96254.64;646434;216;31666;-71
2021/09/21 07:22:50;;;;;;;1.48;1.37;;;11.60;1.40;;;13.49;100.00;96255.98;644713;216;42870;-71
2021/09/21 07:25:34;;;;;;;1.73;1.45;;;11.60;1.40;;;13.39;100.00;96251.60;644918;216;31583;-72
2021/09/21 07:28:16;;;;;;;2.58;2.12;;;11.50;1.40;;;13.26;100.00;96257.92;647077;212;31528;-71
2021/09/21 07:31:01;;;;;;;2.95;1.83;;;11.60;1.40;;;13.47;100.00;96259.94;646951;216;42773;-70
2021/09/21 07:35:51;;;;;;;2.10;1.73;;;11.70;1.40;;;13.43;100.00;96265.75;645391;216;31621;-72
2021/09/21 07:38:33;;;;;;;1.98;1.87;;;11.60;1.40;;;12.87;100.00;96265.91;647828;212;42158;-72
2021/09/21 07:43:49;;;;;;;2.55;1.87;;;11.50;1.40;;;13.31;100.00;96271.84;645002;212;31593;-71
2021/09/21 07:46:31;;;;;;;2.67;1.80;;;11.60;1.40;;;13.69;100.00;96279.84;646495;216;42173;-71
2021/09/21 07:49:15;;;;;;;2.80;1.30;;;11.90;1.40;;;14.13;100.00;96281.77;646555;212;42873;-71
2021/09/21 07:51:57;;;;;;;3.28;1.65;;;12.20;1.40;;;14.38;100.00;96281.55;646784;212;34979;-71
2021/09/21 07:54:41;;;;;;;2.20;1.20;;;12.20;1.40;;;14.45;100.00;96287.75;646457;216;42172;-72
2021/09/21 07:57:22;;;;;;;1.60;1.50;;;12.20;1.40;;;14.36;100.00;96292.36;646783;212;31520;-71
2021/09/21 08:00:06;;;;;;;2.00;1.40;;;12.30;1.40;;;14.48;100.00;96298.98;646298;212;31553;-71
2021/09/21 08:02:51;;;;;;;3.67;2.10;;;12.30;1.40;;;14.60;100.00;96307.25;646513;216;31529;-71
2021/09/21 08:05:33;;;;;;;1.40;1.27;;;12.40;1.40;;;14.55;100.00;96311.99;646085;213;31537;-72
2021/09/21 08:08:16;;;;;;;2.55;1.67;;;12.40;1.40;;;14.33;100.00;96323.20;646492;212;31536;-72
2021/09/21 08:10:57;;;;;;;2.70;2.03;;;12.40;1.40;;;14.62;100.00;96319.76;646123;212;31521;-71
2021/09/21 08:13:37;;;;;;;3.25;2.95;;;12.50;1.40;;;14.78;100.00;96323.44;646154;212;31599;-71
2021/09/21 08:16:26;;;;;;;2.55;2.35;;;12.50;1.40;;;14.60;100.00;96328.15;621186;225;31973;-72
2021/09/21 08:19:10;;;;;;;2.20;2.00;;;12.50;1.40;;;14.63;100.00;96333.77;646373;212;31538;-72
2021/09/21 08:21:51;;;;;;;2.50;1.80;;;12.40;1.40;;;14.74;100.00;96331.22;647223;212;31558;-71
2021/09/21 08:24:33;;;;;;;2.58;1.65;;;12.50;1.40;;;14.83;100.00;96338.21;645899;216;31529;-71
2021/09/21 08:27:15;;;;;;;2.87;1.85;;;12.70;1.40;;;-143.44;100.00;122422.95;646975;212;32165;-71
2021/09/21 08:29:56;;;;;;;2.40;2.00;;;12.80;1.40;;;;;;646621;212;31600;-71
2021/09/21 08:32:37;;;;;;;4.10;2.20;;;12.80;1.40;;;;;;646768;216;31554;-71
2021/09/21 08:35:51;;;;;;;2.95;2.28;;;12.80;1.40;;;;;;646790;213;31590;-71
2021/09/21 08:38:32;;;;;;;3.07;2.50;;;12.90;1.40;;;;;;647513;212;31551;-71
2021/09/21 08:41:13;;;;;;;4.43;2.50;;;13.00;1.40;;;;;;647248;212;31559;-71
2021/09/21 08:46:44;;;;;;;3.43;2.80;;;13.30;1.40;;;;;;647221;213;31681;-72
2021/09/21 08:49:25;;;;;;;3.40;2.40;;;13.00;1.40;;;;;;619976;223;31974;-73
2021/09/21 08:52:06;;;;;;;3.60;2.00;;;13.30;1.40;;;;;;646850;212;31811;-71
2021/09/21 08:54:48;;;;;;;2.75;2.05;;;13.40;1.40;;;;;;645507;212;31824;-71
2021/09/21 08:57:29;;;;;;;3.50;2.37;;;13.30;1.40;;;;;;646787;216;31523;-71
2021/09/21 09:00:11;;;;;;;7.00;3.20;;;13.40;1.40;;;;;;645504;214;32284;-72
2021/09/21 09:02:58;;;;;;;2.85;2.37;;;13.30;1.40;;;;;;646681;212;31541;-71
2021/09/21 09:05:42;;;;;;;3.20;2.33;;;13.50;1.40;;;;;;619239;225;31876;-71
2021/09/21 09:08:27;;;;;;;4.03;3.03;;;13.50;1.40;;;;;;647122;216;31544;-72
2021/09/21 09:11:14;;;;;;;2.60;2.17;;;13.80;1.40;;;;;;618324;226;31842;-72
2021/09/21 09:13:55;;;;;;;2.55;2.10;;;14.20;1.40;;;;;;645996;212;31551;-72
2021/09/21 09:16:36;;;;;;;3.53;2.40;;;14.40;1.40;;;;;;644950;212;31635;-72
2021/09/21 09:21:52;;;;;;;3.40;2.40;;;14.20;1.40;;;;;;646763;216;31676;-72
2021/09/21 09:24:33;;;;;;;4.23;3.00;;;14.20;1.40;;;;;;619679;222;31886;-72
2021/09/21 09:27:14;;;;;;;3.25;2.30;;;14.50;1.40;;;;;;618011;225;31945;-72
2021/09/21 09:29:56;;;;;;;3.55;2.50;;;14.50;1.40;;;;;;645956;214;31560;-71
2021/09/21 09:35:50;;;;;;;4.90;2.60;;;14.60;1.40;;;17.47;78.80;96364.16;646510;212;31749;-72
2021/09/21 09:38:32;;;;;;;3.58;2.70;;;14.60;1.40;;;16.87;80.21;96368.62;645833;212;31803;-71
2021/09/21 09:41:14;;;;;;;5.30;3.70;;;14.60;1.40;;;17.67;79.78;96369.02;641312;212;31762;-71
2021/09/21 09:43:58;;;;;;;3.90;3.25;;;14.50;1.40;;;17.85;78.55;96364.31;647273;216;32106;-70
2021/09/21 09:46:56;;;;;;;3.47;2.03;;;14.50;1.40;;;17.84;77.48;96372.87;645155;216;32276;-71
2021/09/21 09:49:37;;;;;;;3.83;2.70;;;14.70;1.40;;;17.43;80.33;96375.58;645475;212;31626;-71
2021/09/21 09:52:22;;;;;;;6.05;2.70;;;14.60;1.40;;;17.18;79.16;96375.45;646982;216;31591;-71
2021/09/21 09:55:04;;;;;;;3.22;2.70;;;14.50;1.40;;;16.95;80.32;96372.45;647300;212;31537;-71
2021/09/21 09:57:45;;;;;;;5.40;3.60;;;14.40;1.40;;;17.65;77.76;96369.60;645990;216;31588;-71
2021/09/21 10:00:27;;;;;;;3.97;3.20;;;15.00;1.40;;;17.74;76.03;96376.13;646814;216;31595;-71
2021/09/21 10:03:09;;;;;;;4.07;3.45;;;15.00;1.40;;;17.46;76.69;96371.69;645477;216;31576;-71
2021/09/21 10:05:51;;;;;;;4.72;3.40;;;15.10;1.40;;;17.02;76.26;96370.51;647242;216;31586;-71
2021/09/21 10:08:32;;;;;;;3.17;2.75;;;15.00;1.40;;;17.47;78.24;96373.84;646230;212;31573;-71
2021/09/21 10:11:17;;;;;;;4.93;3.60;;;15.80;1.40;;;18.84;70.02;96376.53;645596;212;31585;-72
2021/09/21 10:13:58;;;;;;;3.60;2.97;;;16.00;1.40;;;18.77;68.31;96378.38;646321;216;42761;-71
2021/09/21 10:16:46;;;;;;;4.65;3.10;;;16.20;1.40;;;18.66;71.63;96375.61;645789;216;32186;-71
2021/09/21 10:19:28;;;;;;;3.85;3.33;;;16.10;1.40;;;19.83;67.37;96369.53;647730;212;31593;-72
2021/09/21 10:24:43;;;;;;;4.28;3.20;;;16.80;1.40;;;;;;646416;212;31601;-72
2021/09/21 10:27:24;;;;;;;4.68;4.28;;;16.90;1.40;;;;;;618956;226;42572;-70
2021/09/21 10:30:07;;;;;;;6.62;3.85;;;18.00;1.40;;;;;;646766;216;31570;-71
2021/09/21 10:32:48;;;;;;;6.10;3.70;;;18.10;1.40;;;;;;645298;216;31594;-71
2021/09/21 10:35:53;;;;;;;4.80;3.53;;;17.00;1.40;;;20.34;65.37;96363.70;645291;216;31648;-73
2021/09/21 10:38:41;;;;;;;5.30;3.70;;;17.10;1.40;;;19.40;60.61;96365.44;646283;212;31704;-72
2021/09/21 10:41:22;;;;;;;4.28;3.25;;;16.60;1.40;;;-143.44;100.00;122422.95;639234;216;31767;-71
2021/09/21 10:44:04;;;;;;;5.00;3.60;;;16.80;1.40;;;;;;646915;216;31622;-71
2021/09/21 10:46:46;;;;;;;4.00;3.55;;;18.20;1.40;;;;;;647126;216;32013;-71
2021/09/21 10:49:27;;;;;;;4.50;3.50;;;18.80;1.40;;;;;;646927;216;31707;-71
2021/09/21 10:52:12;;;;;;;4.85;3.65;;;18.50;1.40;;;;;;645940;216;31736;-72
2021/09/21 10:54:54;;;;;;;4.05;3.58;;;17.50;1.40;;;;;;646142;216;31767;-71
2021/09/21 10:57:40;;;;;;;5.67;4.30;;;16.80;1.40;;;;;;645782;216;32235;-74
2021/09/21 11:00:26;;;;;;;5.50;3.72;;;17.10;1.40;;;;;;647613;216;31646;-72
2021/09/21 11:03:13;;;;;;;5.60;3.70;;;16.80;1.40;;;;;;618879;226;31947;-73
2021/09/21 11:06:00;;;;;;;4.82;3.67;;;16.70;1.40;;;;;;646821;216;31582;-72
2021/09/21 11:08:41;;;;;;;5.00;3.67;;;16.90;1.40;;;;;;646155;212;31584;-71
2021/09/21 11:11:22;;;;;;;4.53;3.08;;;17.30;1.40;;;;;;646878;216;31589;-71
2021/09/21 11:14:03;;;;;;;5.50;3.58;;;17.70;1.40;;;;;;645605;216;31558;-71
2021/09/21 11:16:44;;;;;;;3.92;3.30;;;18.20;1.40;;;;;;646829;213;31554;-72
2021/09/21 11:19:29;;;;;;;4.30;3.90;;;18.00;1.40;;;;;;646109;212;31932;-71
2021/09/21 11:22:10;;;;;;;5.28;3.50;;;17.70;1.40;;;;;;646721;212;31878;-72
2021/09/21 11:24:51;;;;;;;3.28;2.97;;;17.60;1.40;;;;;;645523;212;31701;-72
2021/09/21 11:27:35;;;;;;;5.12;4.20;;;18.30;1.40;;;;;;646188;212;31579;-71
2021/09/21 11:30:17;;;;;;;3.75;3.40;;;18.20;1.40;;;;;;645210;212;31622;-72
2021/09/21 11:35:52;;;;;;;5.27;3.67;;;17.90;1.40;;;-143.44;100.00;122422.95;618376;222;32413;-72
2021/09/21 11:38:39;;;;;;;4.65;3.70;;;17.70;1.40;;;;;;619211;222;32560;-71
2021/09/21 11:41:21;;;;;;;5.35;3.80;;;18.00;1.40;;;;;;618665;222;43448;-71
2021/09/21 11:44:01;;;;;;;5.27;3.30;;;17.70;1.40;;;;;;647112;212;32878;-72
2021/09/21 11:46:42;;;;;;;4.00;3.45;;;17.80;1.40;;;;;;646092;216;42259;-72
2021/09/21 11:49:23;;;;;;;4.18;3.15;;;17.90;1.40;;;;;;646405;212;31600;-71
2021/09/21 11:52:10;;;;;;;5.57;3.40;;;18.30;1.40;;;;;;645527;216;31558;-72
2021/09/21 11:57:31;;;;;;;4.07;3.10;;;19.30;1.40;;;;;;645978;212;31623;-71
2021/09/21 12:00:19;;;;;;;4.05;3.30;;;19.50;1.40;;;;;;645872;212;31606;-71
2021/09/21 12:03:01;;;;;;;4.03;3.40;;;18.30;1.40;;;;;;646882;216;33630;-71
2021/09/21 12:05:42;;;;;;;3.78;2.78;;;18.60;1.40;;;;;;646521;212;42802;-72
2021/09/21 12:08:25;;;;;;;5.30;3.72;;;18.90;1.40;;;;;;645130;216;31625;-71
2021/09/21 12:11:08;;;;;;;4.95;3.22;;;18.10;1.40;;;;;;646380;212;42792;-72
2021/09/21 12:13:49;;;;;;;4.22;3.10;;;17.90;1.40;;;;;;646601;216;31690;-72
2021/09/21 12:16:30;;;;;;;3.45;2.90;;;17.80;1.40;;;;;;646219;212;31653;-71
2021/09/21 12:19:15;;;;;;;4.20;3.22;;;17.80;1.40;;;;;;619116;222;32019;-71
2021/09/21 12:21:56;;;;;;;4.78;3.20;;;17.50;1.40;;;;;;645914;212;31685;-71
2021/09/21 12:24:37;;;;;;;4.10;3.05;;;17.70;1.40;;;;;;645479;216;31804;-71
2021/09/21 12:27:19;;;;;;;5.75;3.30;;;18.00;1.40;;;;;;645812;216;32136;-71
2021/09/21 12:32:38;;;;;;;4.65;3.00;;;18.60;1.40;;;;;;646692;216;32094;-71
2021/09/21 12:35:52;;;;;;;3.87;3.27;;;21.70;1.40;;;-143.44;100.00;122422.95;644723;212;31716;-72
2021/09/21 12:38:33;;;;;;;4.55;3.33;;;22.30;1.40;;;;;;646280;212;42195;-72
2021/09/21 12:41:14;;;;;;;4.03;3.10;;;21.70;1.40;;;;;;641363;212;31705;-72
2021/09/21 12:43:55;;;;;;;5.30;3.87;;;20.40;1.40;;;;;;646345;216;31610;-72
2021/09/21 12:46:36;;;;;;;3.92;3.28;;;18.50;1.40;;;;;;645409;216;31602;-71
2021/09/21 12:49:20;;;;;;;3.65;3.30;;;17.20;1.40;;;;;;646871;216;31597;-71
2021/09/21 12:52:01;;;;;;;5.37;3.03;;;17.60;1.40;;;;;;646279;212;31579;-72
2021/09/21 12:54:42;;;;;;;5.70;3.10;;;17.90;1.40;;;;;;646090;212;31552;-71
2021/09/21 12:57:23;;;;;;;4.55;3.37;;;17.20;1.40;;;;;;646686;213;31549;-71
2021/09/21 13:00:11;;;;;;;4.28;3.08;;;17.00;1.40;;;;;;647028;216;31785;-73
2021/09/21 13:02:58;;;;;;;3.87;3.10;;;16.90;1.40;;;;;;645812;216;31669;-72